sensor_id;sensor_type;location;lat;lon;timestamp;temperature;humidity
42973;DHT22;28610;51.214;6.962;2022-07-09T00:01:25;18.00;90.40
42973;DHT22;28610;51.214;6.962;2022-07-09T00:04:11;17.90;90.60
42973;DHT22;28610;51.214;6.962;2022-07-09T00:06:57;17.80;91.10
42973;DHT22;28610;51.214;6.962;2022-07-09T00:09:44;17.80;91.30
42973;DHT22;28610;51.214;6.962;2022-07-09T00:12:29;17.80;91.20
42973;DHT22;28610;51.214;6.962;2022-07-09T00:15:15;17.60;91.60
42973;DHT22;28610;51.214;6.962;2022-07-09T00:18:00;17.60;91.80
42973;DHT22;28610;51.214;6.962;2022-07-09T00:20:46;17.60;91.70
42973;DHT22;28610;51.214;6.962;2022-07-09T00:23:33;17.50;91.90
42973;DHT22;28610;51.214;6.962;2022-07-09T00:26:18;17.40;92.20
42973;DHT22;28610;51.214;6.962;2022-07-09T00:29:04;17.40;92.30
42973;DHT22;28610;51.214;6.962;2022-07-09T00:31:50;17.30;92.40
42973;DHT22;28610;51.214;6.962;2022-07-09T00:34:35;17.30;92.60
42973;DHT22;28610;51.214;6.962;2022-07-09T00:37:20;17.50;92.00
42973;DHT22;28610;51.214;6.962;2022-07-09T00:40:09;17.60;91.90
42973;DHT22;28610;51.214;6.962;2022-07-09T00:42:54;17.60;91.70
42973;DHT22;28610;51.214;6.962;2022-07-09T00:45:40;17.60;91.70
42973;DHT22;28610;51.214;6.962;2022-07-09T00:48:25;17.50;91.50
42973;DHT22;28610;51.214;6.962;2022-07-09T00:51:12;17.50;91.60
42973;DHT22;28610;51.214;6.962;2022-07-09T00:53:59;17.50;91.70
42973;DHT22;28610;51.214;6.962;2022-07-09T00:56:46;17.50;92.00
42973;DHT22;28610;51.214;6.962;2022-07-09T00:59:32;17.40;92.00
42973;DHT22;28610;51.214;6.962;2022-07-09T01:02:18;17.30;92.20
42973;DHT22;28610;51.214;6.962;2022-07-09T01:05:06;17.40;92.30
42973;DHT22;28610;51.214;6.962;2022-07-09T01:07:52;17.30;92.30
42973;DHT22;28610;51.214;6.962;2022-07-09T01:10:38;17.40;92.40
42973;DHT22;28610;51.214;6.962;2022-07-09T01:13:25;17.30;92.50
42973;DHT22;28610;51.214;6.962;2022-07-09T01:16:14;17.40;92.20
42973;DHT22;28610;51.214;6.962;2022-07-09T01:19:00;17.30;92.60
42973;DHT22;28610;51.214;6.962;2022-07-09T01:21:47;17.30;92.20
42973;DHT22;28610;51.214;6.962;2022-07-09T01:24:32;17.30;91.90
42973;DHT22;28610;51.214;6.962;2022-07-09T01:27:18;17.30;91.80
42973;DHT22;28610;51.214;6.962;2022-07-09T01:30:05;17.10;92.60
42973;DHT22;28610;51.214;6.962;2022-07-09T01:32:50;17.00;92.70
42973;DHT22;28610;51.214;6.962;2022-07-09T01:35:36;16.80;93.30
42973;DHT22;28610;51.214;6.962;2022-07-09T01:38:23;16.90;93.30
42973;DHT22;28610;51.214;6.962;2022-07-09T01:41:08;16.90;93.20
42973;DHT22;28610;51.214;6.962;2022-07-09T01:43:54;16.90;93.30
42973;DHT22;28610;51.214;6.962;2022-07-09T01:46:40;16.90;93.60
42973;DHT22;28610;51.214;6.962;2022-07-09T01:49:25;16.90;93.20
42973;DHT22;28610;51.214;6.962;2022-07-09T01:52:11;16.80;93.50
42973;DHT22;28610;51.214;6.962;2022-07-09T01:54:58;16.90;93.20
42973;DHT22;28610;51.214;6.962;2022-07-09T01:57:43;16.80;93.40
42973;DHT22;28610;51.214;6.962;2022-07-09T02:00:29;16.80;93.30
42973;DHT22;28610;51.214;6.962;2022-07-09T02:03:14;16.90;93.40
42973;DHT22;28610;51.214;6.962;2022-07-09T02:06:00;16.80;93.50
42973;DHT22;28610;51.214;6.962;2022-07-09T02:08:45;16.80;93.60
42973;DHT22;28610;51.214;6.962;2022-07-09T02:11:32;16.90;93.50
42973;DHT22;28610;51.214;6.962;2022-07-09T02:14:18;16.90;93.00
42973;DHT22;28610;51.214;6.962;2022-07-09T02:17:04;16.90;93.30
42973;DHT22;28610;51.214;6.962;2022-07-09T02:19:50;16.90;93.20
42973;DHT22;28610;51.214;6.962;2022-07-09T02:22:35;17.00;93.10
42973;DHT22;28610;51.214;6.962;2022-07-09T02:25:20;17.00;93.30
42973;DHT22;28610;51.214;6.962;2022-07-09T02:28:07;16.90;93.40
42973;DHT22;28610;51.214;6.962;2022-07-09T02:30:53;17.10;93.20
42973;DHT22;28610;51.214;6.962;2022-07-09T02:33:38;17.20;93.00
42973;DHT22;28610;51.214;6.962;2022-07-09T02:36:24;17.10;93.10
42973;DHT22;28610;51.214;6.962;2022-07-09T02:39:10;17.10;93.10
42973;DHT22;28610;51.214;6.962;2022-07-09T02:41:55;17.20;93.10
42973;DHT22;28610;51.214;6.962;2022-07-09T02:44:42;17.20;93.20
42973;DHT22;28610;51.214;6.962;2022-07-09T02:47:27;17.10;93.40
42973;DHT22;28610;51.214;6.962;2022-07-09T02:50:13;17.00;93.60
42973;DHT22;28610;51.214;6.962;2022-07-09T02:52:58;16.80;94.20
42973;DHT22;28610;51.214;6.962;2022-07-09T02:55:44;16.80;94.40
42973;DHT22;28610;51.214;6.962;2022-07-09T02:58:31;16.80;94.20
42973;DHT22;28610;51.214;6.962;2022-07-09T03:01:18;16.70;94.50
42973;DHT22;28610;51.214;6.962;2022-07-09T03:04:03;16.70;94.60
42973;DHT22;28610;51.214;6.962;2022-07-09T03:06:49;16.70;94.50
42973;DHT22;28610;51.214;6.962;2022-07-09T03:09:34;16.80;94.40
42973;DHT22;28610;51.214;6.962;2022-07-09T03:12:20;16.90;93.90
42973;DHT22;28610;51.214;6.962;2022-07-09T03:15:07;16.90;93.90
42973;DHT22;28610;51.214;6.962;2022-07-09T03:17:53;16.90;93.70
42973;DHT22;28610;51.214;6.962;2022-07-09T03:20:39;16.90;93.80
42973;DHT22;28610;51.214;6.962;2022-07-09T03:23:25;16.90;93.60
42973;DHT22;28610;51.214;6.962;2022-07-09T03:26:10;16.90;93.70
42973;DHT22;28610;51.214;6.962;2022-07-09T03:28:55;16.80;93.80
42973;DHT22;28610;51.214;6.962;2022-07-09T03:31:40;16.70;94.20
42973;DHT22;28610;51.214;6.962;2022-07-09T03:34:27;16.50;94.70
42973;DHT22;28610;51.214;6.962;2022-07-09T03:37:13;16.50;94.70
42973;DHT22;28610;51.214;6.962;2022-07-09T03:39:58;16.50;94.90
42973;DHT22;28610;51.214;6.962;2022-07-09T03:42:43;16.50;95.10
42973;DHT22;28610;51.214;6.962;2022-07-09T03:45:29;16.50;95.00
42973;DHT22;28610;51.214;6.962;2022-07-09T03:48:14;16.60;94.90
42973;DHT22;28610;51.214;6.962;2022-07-09T03:51:01;16.60;94.90
42973;DHT22;28610;51.214;6.962;2022-07-09T03:53:46;16.70;94.70
42973;DHT22;28610;51.214;6.962;2022-07-09T03:56:32;16.70;94.90
42973;DHT22;28610;51.214;6.962;2022-07-09T03:59:17;16.70;95.00
42973;DHT22;28610;51.214;6.962;2022-07-09T04:02:03;16.60;95.30
42973;DHT22;28610;51.214;6.962;2022-07-09T04:04:49;16.70;95.20
42973;DHT22;28610;51.214;6.962;2022-07-09T04:07:36;16.80;95.10
42973;DHT22;28610;51.214;6.962;2022-07-09T04:10:21;16.90;95.10
42973;DHT22;28610;51.214;6.962;2022-07-09T04:13:07;16.90;94.80
42973;DHT22;28610;51.214;6.962;2022-07-09T04:15:52;17.00;94.80
42973;DHT22;28610;51.214;6.962;2022-07-09T04:18:38;17.00;94.70
42973;DHT22;28610;51.214;6.962;2022-07-09T04:21:26;17.00;94.50
42973;DHT22;28610;51.214;6.962;2022-07-09T04:24:13;17.00;94.40
42973;DHT22;28610;51.214;6.962;2022-07-09T04:27:00;16.90;94.80
42973;DHT22;28610;51.214;6.962;2022-07-09T04:29:45;17.00;94.40
42973;DHT22;28610;51.214;6.962;2022-07-09T04:32:31;17.00;94.10
42973;DHT22;28610;51.214;6.962;2022-07-09T04:35:16;17.00;94.30
42973;DHT22;28610;51.214;6.962;2022-07-09T04:38:01;17.00;94.30
42973;DHT22;28610;51.214;6.962;2022-07-09T04:40:48;16.90;94.70
42973;DHT22;28610;51.214;6.962;2022-07-09T04:43:34;16.90;95.20
42973;DHT22;28610;51.214;6.962;2022-07-09T04:46:19;18.10;94.00
42973;DHT22;28610;51.214;6.962;2022-07-09T04:49:05;19.00;92.00
42973;DHT22;28610;51.214;6.962;2022-07-09T04:51:51;20.00;90.80
42973;DHT22;28610;51.214;6.962;2022-07-09T04:54:36;20.50;87.40
42973;DHT22;28610;51.214;6.962;2022-07-09T04:57:23;21.00;84.00
42973;DHT22;28610;51.214;6.962;2022-07-09T05:00:10;21.30;81.00
42973;DHT22;28610;51.214;6.962;2022-07-09T05:02:55;20.20;81.50
42973;DHT22;28610;51.214;6.962;2022-07-09T05:05:41;19.50;84.80
42973;DHT22;28610;51.214;6.962;2022-07-09T05:08:27;19.00;87.50
42973;DHT22;28610;51.214;6.962;2022-07-09T05:11:12;18.80;90.00
42973;DHT22;28610;51.214;6.962;2022-07-09T05:13:59;18.80;89.40
42973;DHT22;28610;51.214;6.962;2022-07-09T05:16:44;18.90;89.40
42973;DHT22;28610;51.214;6.962;2022-07-09T05:19:30;18.80;90.00
42973;DHT22;28610;51.214;6.962;2022-07-09T05:22:15;18.90;90.00
42973;DHT22;28610;51.214;6.962;2022-07-09T05:25:01;20.80;85.90
42973;DHT22;28610;51.214;6.962;2022-07-09T05:27:47;22.10;79.60
42973;DHT22;28610;51.214;6.962;2022-07-09T05:30:34;23.00;75.10
42973;DHT22;28610;51.214;6.962;2022-07-09T05:33:21;23.10;71.30
42973;DHT22;28610;51.214;6.962;2022-07-09T05:36:06;23.20;71.50
42973;DHT22;28610;51.214;6.962;2022-07-09T05:38:52;23.80;69.20
42973;DHT22;28610;51.214;6.962;2022-07-09T05:41:37;23.60;67.80
42973;DHT22;28610;51.214;6.962;2022-07-09T05:44:22;23.60;67.60
42973;DHT22;28610;51.214;6.962;2022-07-09T05:47:09;24.10;66.10
42973;DHT22;28610;51.214;6.962;2022-07-09T05:49:55;23.80;66.30
42973;DHT22;28610;51.214;6.962;2022-07-09T05:52:40;23.90;65.70
42973;DHT22;28610;51.214;6.962;2022-07-09T05:55:26;24.40;63.00
42973;DHT22;28610;51.214;6.962;2022-07-09T05:58:11;24.40;63.20
42973;DHT22;28610;51.214;6.962;2022-07-09T06:00:57;24.00;63.90
42973;DHT22;28610;51.214;6.962;2022-07-09T06:03:44;24.30;61.70
42973;DHT22;28610;51.214;6.962;2022-07-09T06:06:31;24.30;62.10
42973;DHT22;28610;51.214;6.962;2022-07-09T06:09:16;24.00;61.20
42973;DHT22;28610;51.214;6.962;2022-07-09T06:12:02;24.10;62.60
42973;DHT22;28610;51.214;6.962;2022-07-09T06:14:48;24.60;59.80
42973;DHT22;28610;51.214;6.962;2022-07-09T06:17:33;24.80;59.50
42973;DHT22;28610;51.214;6.962;2022-07-09T06:20:20;25.10;56.30
42973;DHT22;28610;51.214;6.962;2022-07-09T06:23:06;24.90;57.40
42973;DHT22;28610;51.214;6.962;2022-07-09T06:25:51;25.20;56.50
42973;DHT22;28610;51.214;6.962;2022-07-09T06:28:37;24.40;60.00
42973;DHT22;28610;51.214;6.962;2022-07-09T06:31:22;24.80;57.30
42973;DHT22;28610;51.214;6.962;2022-07-09T06:34:08;24.50;57.80
42973;DHT22;28610;51.214;6.962;2022-07-09T06:36:55;24.10;61.60
42973;DHT22;28610;51.214;6.962;2022-07-09T06:39:41;23.90;61.50
42973;DHT22;28610;51.214;6.962;2022-07-09T06:42:29;23.60;64.10
42973;DHT22;28610;51.214;6.962;2022-07-09T06:45:14;23.90;61.30
42973;DHT22;28610;51.214;6.962;2022-07-09T06:48:00;24.20;59.90
42973;DHT22;28610;51.214;6.962;2022-07-09T06:50:46;24.60;58.80
42973;DHT22;28610;51.214;6.962;2022-07-09T06:53:32;24.60;57.00
42973;DHT22;28610;51.214;6.962;2022-07-09T06:56:18;25.50;53.20
42973;DHT22;28610;51.214;6.962;2022-07-09T06:59:03;26.00;48.30
42973;DHT22;28610;51.214;6.962;2022-07-09T07:01:49;25.00;52.40
42973;DHT22;28610;51.214;6.962;2022-07-09T07:04:34;24.40;52.30
42973;DHT22;28610;51.214;6.962;2022-07-09T07:07:20;25.00;51.40
42973;DHT22;28610;51.214;6.962;2022-07-09T07:10:08;25.00;51.10
42973;DHT22;28610;51.214;6.962;2022-07-09T07:12:54;24.70;53.40
42973;DHT22;28610;51.214;6.962;2022-07-09T07:15:39;24.30;54.10
42973;DHT22;28610;51.214;6.962;2022-07-09T07:18:25;24.20;55.60
42973;DHT22;28610;51.214;6.962;2022-07-09T07:21:10;24.20;57.70
42973;DHT22;28610;51.214;6.962;2022-07-09T07:23:55;24.60;55.50
42973;DHT22;28610;51.214;6.962;2022-07-09T07:26:42;25.20;53.10
42973;DHT22;28610;51.214;6.962;2022-07-09T07:29:28;25.70;49.80
42973;DHT22;28610;51.214;6.962;2022-07-09T07:32:13;25.40;50.70
42973;DHT22;28610;51.214;6.962;2022-07-09T07:34:58;24.80;52.90
42973;DHT22;28610;51.214;6.962;2022-07-09T07:37:44;25.10;52.40
42973;DHT22;28610;51.214;6.962;2022-07-09T07:40:29;25.80;49.50
42973;DHT22;28610;51.214;6.962;2022-07-09T07:43:16;25.80;48.40
42973;DHT22;28610;51.214;6.962;2022-07-09T07:46:01;25.50;48.90
42973;DHT22;28610;51.214;6.962;2022-07-09T07:48:47;26.30;47.80
42973;DHT22;28610;51.214;6.962;2022-07-09T07:51:32;27.50;44.70
42973;DHT22;28610;51.214;6.962;2022-07-09T07:54:18;28.50;42.10
42973;DHT22;28610;51.214;6.962;2022-07-09T07:57:04;28.90;39.60
42973;DHT22;28610;51.214;6.962;2022-07-09T07:59:51;27.40;40.80
42973;DHT22;28610;51.214;6.962;2022-07-09T08:02:37;26.50;43.70
42973;DHT22;28610;51.214;6.962;2022-07-09T08:05:22;26.80;44.30
42973;DHT22;28610;51.214;6.962;2022-07-09T08:08:09;26.80;45.50
42973;DHT22;28610;51.214;6.962;2022-07-09T08:10:54;27.30;42.50
42973;DHT22;28610;51.214;6.962;2022-07-09T08:13:40;27.00;41.80
42973;DHT22;28610;51.214;6.962;2022-07-09T08:16:27;27.60;41.10
42973;DHT22;28610;51.214;6.962;2022-07-09T08:19:12;28.40;39.00
42973;DHT22;28610;51.214;6.962;2022-07-09T08:21:59;27.40;40.90
42973;DHT22;28610;51.214;6.962;2022-07-09T08:24:45;29.00;38.10
42973;DHT22;28610;51.214;6.962;2022-07-09T08:27:30;28.00;38.50
42973;DHT22;28610;51.214;6.962;2022-07-09T08:30:15;27.80;38.80
42973;DHT22;28610;51.214;6.962;2022-07-09T08:33:03;27.80;40.20
42973;DHT22;28610;51.214;6.962;2022-07-09T08:35:48;27.20;40.70
42973;DHT22;28610;51.214;6.962;2022-07-09T08:38:33;26.40;42.70
42973;DHT22;28610;51.214;6.962;2022-07-09T08:41:19;26.00;44.30
42973;DHT22;28610;51.214;6.962;2022-07-09T08:44:10;25.80;42.80
42973;DHT22;28610;51.214;6.962;2022-07-09T08:46:56;25.70;43.00
42973;DHT22;28610;51.214;6.962;2022-07-09T08:49:46;26.10;43.80
42973;DHT22;28610;51.214;6.962;2022-07-09T08:52:32;26.20;43.80
42973;DHT22;28610;51.214;6.962;2022-07-09T08:55:18;26.90;41.10
42973;DHT22;28610;51.214;6.962;2022-07-09T08:58:03;27.00;38.60
42973;DHT22;28610;51.214;6.962;2022-07-09T09:00:49;26.30;42.20
42973;DHT22;28610;51.214;6.962;2022-07-09T09:03:35;27.10;40.70
42973;DHT22;28610;51.214;6.962;2022-07-09T09:06:22;28.70;36.60
42973;DHT22;28610;51.214;6.962;2022-07-09T09:09:09;29.90;34.50
42973;DHT22;28610;51.214;6.962;2022-07-09T09:11:56;29.70;32.30
42973;DHT22;28610;51.214;6.962;2022-07-09T09:14:48;30.40;32.80
42973;DHT22;28610;51.214;6.962;2022-07-09T09:17:33;30.20;32.40
42973;DHT22;28610;51.214;6.962;2022-07-09T09:20:20;29.10;32.60
42973;DHT22;28610;51.214;6.962;2022-07-09T09:23:07;29.50;32.50
42973;DHT22;28610;51.214;6.962;2022-07-09T09:25:54;30.90;30.40
42973;DHT22;28610;51.214;6.962;2022-07-09T09:28:47;31.30;28.90
42973;DHT22;28610;51.214;6.962;2022-07-09T09:31:35;31.70;29.00
42973;DHT22;28610;51.214;6.962;2022-07-09T09:34:21;32.10;28.90
42973;DHT22;28610;51.214;6.962;2022-07-09T09:37:07;30.30;30.70
42973;DHT22;28610;51.214;6.962;2022-07-09T09:39:54;29.70;33.10
42973;DHT22;28610;51.214;6.962;2022-07-09T09:42:41;30.40;31.20
42973;DHT22;28610;51.214;6.962;2022-07-09T09:45:27;30.20;30.20
42973;DHT22;28610;51.214;6.962;2022-07-09T09:48:13;30.10;30.50
42973;DHT22;28610;51.214;6.962;2022-07-09T09:51:02;29.30;32.90
42973;DHT22;28610;51.214;6.962;2022-07-09T09:53:48;29.60;31.70
42973;DHT22;28610;51.214;6.962;2022-07-09T09:56:35;29.50;32.90
42973;DHT22;28610;51.214;6.962;2022-07-09T09:59:21;29.10;32.10
42973;DHT22;28610;51.214;6.962;2022-07-09T10:02:08;28.30;33.00
42973;DHT22;28610;51.214;6.962;2022-07-09T10:04:54;28.90;33.80
42973;DHT22;28610;51.214;6.962;2022-07-09T10:07:40;28.70;34.30
42973;DHT22;28610;51.214;6.962;2022-07-09T10:10:26;27.40;35.70
42973;DHT22;28610;51.214;6.962;2022-07-09T10:13:20;27.10;38.20
42973;DHT22;28610;51.214;6.962;2022-07-09T10:16:06;26.70;38.80
42973;DHT22;28610;51.214;6.962;2022-07-09T10:18:52;27.20;38.00
42973;DHT22;28610;51.214;6.962;2022-07-09T10:21:39;27.50;37.10
42973;DHT22;28610;51.214;6.962;2022-07-09T10:24:25;28.20;35.90
42973;DHT22;28610;51.214;6.962;2022-07-09T10:27:11;27.90;35.60
42973;DHT22;28610;51.214;6.962;2022-07-09T10:29:59;28.10;36.40
42973;DHT22;28610;51.214;6.962;2022-07-09T10:32:47;27.30;36.80
42973;DHT22;28610;51.214;6.962;2022-07-09T10:35:42;27.10;37.60
42973;DHT22;28610;51.214;6.962;2022-07-09T10:38:34;26.80;39.00
42973;DHT22;28610;51.214;6.962;2022-07-09T10:41:22;26.60;40.20
42973;DHT22;28610;51.214;6.962;2022-07-09T10:44:07;26.80;40.00
42973;DHT22;28610;51.214;6.962;2022-07-09T10:46:57;26.40;40.80
42973;DHT22;28610;51.214;6.962;2022-07-09T10:49:42;26.20;41.60
42973;DHT22;28610;51.214;6.962;2022-07-09T10:52:30;26.30;41.90
42973;DHT22;28610;51.214;6.962;2022-07-09T10:55:17;26.20;41.80
42973;DHT22;28610;51.214;6.962;2022-07-09T10:58:03;26.10;41.90
42973;DHT22;28610;51.214;6.962;2022-07-09T11:00:55;26.10;41.10
42973;DHT22;28610;51.214;6.962;2022-07-09T11:03:48;26.10;40.40
42973;DHT22;28610;51.214;6.962;2022-07-09T11:06:44;26.40;40.70
42973;DHT22;28610;51.214;6.962;2022-07-09T11:09:29;26.60;40.20
42973;DHT22;28610;51.214;6.962;2022-07-09T11:12:15;26.20;40.30
42973;DHT22;28610;51.214;6.962;2022-07-09T11:15:01;25.90;43.20
42973;DHT22;28610;51.214;6.962;2022-07-09T11:17:54;26.00;41.90
42973;DHT22;28610;51.214;6.962;2022-07-09T11:20:42;25.60;42.40
42973;DHT22;28610;51.214;6.962;2022-07-09T11:23:28;25.70;42.00
42973;DHT22;28610;51.214;6.962;2022-07-09T11:26:14;26.00;42.00
42973;DHT22;28610;51.214;6.962;2022-07-09T11:29:00;26.10;42.00
42973;DHT22;28610;51.214;6.962;2022-07-09T11:31:49;25.90;41.20
42973;DHT22;28610;51.214;6.962;2022-07-09T11:34:34;26.20;41.40
42973;DHT22;28610;51.214;6.962;2022-07-09T11:37:25;26.40;41.10
42973;DHT22;28610;51.214;6.962;2022-07-09T11:40:15;26.20;40.50
42973;DHT22;28610;51.214;6.962;2022-07-09T11:43:01;26.60;40.80
42973;DHT22;28610;51.214;6.962;2022-07-09T11:45:52;26.90;40.70
42973;DHT22;28610;51.214;6.962;2022-07-09T11:48:48;27.30;39.80
42973;DHT22;28610;51.214;6.962;2022-07-09T11:51:34;26.80;39.70
42973;DHT22;28610;51.214;6.962;2022-07-09T11:54:27;26.40;39.90
42973;DHT22;28610;51.214;6.962;2022-07-09T11:57:19;26.20;41.20
42973;DHT22;28610;51.214;6.962;2022-07-09T12:00:06;25.90;42.10
42973;DHT22;28610;51.214;6.962;2022-07-09T12:02:53;25.90;42.60
42973;DHT22;28610;51.214;6.962;2022-07-09T12:05:38;26.00;42.80
42973;DHT22;28610;51.214;6.962;2022-07-09T12:08:28;25.70;43.80
42973;DHT22;28610;51.214;6.962;2022-07-09T12:11:15;25.80;44.00
42973;DHT22;28610;51.214;6.962;2022-07-09T12:14:10;25.50;43.60
42973;DHT22;28610;51.214;6.962;2022-07-09T12:16:57;25.50;43.30
42973;DHT22;28610;51.214;6.962;2022-07-09T12:19:43;25.40;44.40
42973;DHT22;28610;51.214;6.962;2022-07-09T12:22:28;25.20;44.80
42973;DHT22;28610;51.214;6.962;2022-07-09T12:25:14;25.20;45.70
42973;DHT22;28610;51.214;6.962;2022-07-09T12:28:00;25.20;45.40
42973;DHT22;28610;51.214;6.962;2022-07-09T12:30:46;25.30;46.00
42973;DHT22;28610;51.214;6.962;2022-07-09T12:33:31;25.70;45.90
42973;DHT22;28610;51.214;6.962;2022-07-09T12:36:17;26.00;45.10
42973;DHT22;28610;51.214;6.962;2022-07-09T12:39:03;26.40;43.50
42973;DHT22;28610;51.214;6.962;2022-07-09T12:41:48;26.70;43.20
42973;DHT22;28610;51.214;6.962;2022-07-09T12:44:35;26.70;42.80
42973;DHT22;28610;51.214;6.962;2022-07-09T12:47:20;26.50;42.60
42973;DHT22;28610;51.214;6.962;2022-07-09T12:50:07;26.90;42.60
42973;DHT22;28610;51.214;6.962;2022-07-09T12:52:53;26.80;42.60
42973;DHT22;28610;51.214;6.962;2022-07-09T12:55:39;26.30;42.50
42973;DHT22;28610;51.214;6.962;2022-07-09T12:58:24;26.10;42.70
42973;DHT22;28610;51.214;6.962;2022-07-09T13:01:11;26.00;43.40
42973;DHT22;28610;51.214;6.962;2022-07-09T13:03:56;26.10;43.80
42973;DHT22;28610;51.214;6.962;2022-07-09T13:06:42;26.20;43.30
42973;DHT22;28610;51.214;6.962;2022-07-09T13:09:27;26.00;44.00
42973;DHT22;28610;51.214;6.962;2022-07-09T13:12:13;25.70;45.00
42973;DHT22;28610;51.214;6.962;2022-07-09T13:14:58;25.70;45.90
42973;DHT22;28610;51.214;6.962;2022-07-09T13:17:45;25.50;46.50
42973;DHT22;28610;51.214;6.962;2022-07-09T13:20:30;25.50;47.50
42973;DHT22;28610;51.214;6.962;2022-07-09T13:23:16;24.80;48.80
42973;DHT22;28610;51.214;6.962;2022-07-09T13:26:02;23.90;53.10
42973;DHT22;28610;51.214;6.962;2022-07-09T13:28:47;23.50;54.60
42973;DHT22;28610;51.214;6.962;2022-07-09T13:31:32;23.10;58.60
42973;DHT22;28610;51.214;6.962;2022-07-09T13:34:19;22.90;62.00
42973;DHT22;28610;51.214;6.962;2022-07-09T13:37:05;22.90;64.20
42973;DHT22;28610;51.214;6.962;2022-07-09T13:39:50;22.70;67.30
42973;DHT22;28610;51.214;6.962;2022-07-09T13:42:37;22.60;70.90
42973;DHT22;28610;51.214;6.962;2022-07-09T13:45:22;22.40;72.00
42973;DHT22;28610;51.214;6.962;2022-07-09T13:48:08;22.40;72.70
42973;DHT22;28610;51.214;6.962;2022-07-09T13:50:54;22.80;72.00
42973;DHT22;28610;51.214;6.962;2022-07-09T13:53:40;22.90;71.00
42973;DHT22;28610;51.214;6.962;2022-07-09T13:56:26;23.20;68.90
42973;DHT22;28610;51.214;6.962;2022-07-09T13:59:12;23.30;69.30
42973;DHT22;28610;51.214;6.962;2022-07-09T14:01:58;23.70;66.60
42973;DHT22;28610;51.214;6.962;2022-07-09T14:04:43;23.90;62.80
42973;DHT22;28610;51.214;6.962;2022-07-09T14:07:30;23.90;63.60
42973;DHT22;28610;51.214;6.962;2022-07-09T14:10:15;24.40;62.10
42973;DHT22;28610;51.214;6.962;2022-07-09T14:13:01;24.60;60.00
42973;DHT22;28610;51.214;6.962;2022-07-09T14:15:48;24.80;59.40
42973;DHT22;28610;51.214;6.962;2022-07-09T14:18:33;24.60;57.20
42973;DHT22;28610;51.214;6.962;2022-07-09T14:21:19;24.60;60.00
42973;DHT22;28610;51.214;6.962;2022-07-09T14:24:06;24.30;57.10
42973;DHT22;28610;51.214;6.962;2022-07-09T14:26:51;24.20;58.70
42973;DHT22;28610;51.214;6.962;2022-07-09T14:29:36;24.00;59.60
42973;DHT22;28610;51.214;6.962;2022-07-09T14:32:22;24.10;60.40
42973;DHT22;28610;51.214;6.962;2022-07-09T14:35:08;23.90;61.60
42973;DHT22;28610;51.214;6.962;2022-07-09T14:37:53;23.90;62.60
42973;DHT22;28610;51.214;6.962;2022-07-09T14:40:40;24.20;61.10
42973;DHT22;28610;51.214;6.962;2022-07-09T14:43:25;24.20;61.00
42973;DHT22;28610;51.214;6.962;2022-07-09T14:46:11;24.40;60.30
42973;DHT22;28610;51.214;6.962;2022-07-09T14:48:56;24.40;60.10
42973;DHT22;28610;51.214;6.962;2022-07-09T14:51:41;24.50;59.30
42973;DHT22;28610;51.214;6.962;2022-07-09T14:54:27;24.40;58.40
42973;DHT22;28610;51.214;6.962;2022-07-09T14:57:14;24.60;58.30
42973;DHT22;28610;51.214;6.962;2022-07-09T14:59:59;24.60;56.90
42973;DHT22;28610;51.214;6.962;2022-07-09T15:02:45;25.00;56.70
42973;DHT22;28610;51.214;6.962;2022-07-09T15:05:30;25.50;54.80
42973;DHT22;28610;51.214;6.962;2022-07-09T15:08:16;25.40;48.90
42973;DHT22;28610;51.214;6.962;2022-07-09T15:11:01;24.60;49.70
42973;DHT22;28610;51.214;6.962;2022-07-09T15:13:48;24.50;49.80
42973;DHT22;28610;51.214;6.962;2022-07-09T15:16:33;24.30;50.80
42973;DHT22;28610;51.214;6.962;2022-07-09T15:19:19;24.30;50.80
42973;DHT22;28610;51.214;6.962;2022-07-09T15:22:04;24.60;51.00
42973;DHT22;28610;51.214;6.962;2022-07-09T15:24:49;24.60;50.10
42973;DHT22;28610;51.214;6.962;2022-07-09T15:27:35;24.70;50.10
42973;DHT22;28610;51.214;6.962;2022-07-09T15:30:22;24.60;47.30
42973;DHT22;28610;51.214;6.962;2022-07-09T15:33:08;24.60;46.50
42973;DHT22;28610;51.214;6.962;2022-07-09T15:35:55;24.50;45.80
42973;DHT22;28610;51.214;6.962;2022-07-09T15:38:41;24.60;47.80
42973;DHT22;28610;51.214;6.962;2022-07-09T15:41:26;24.60;48.00
42973;DHT22;28610;51.214;6.962;2022-07-09T15:44:14;24.50;47.00
42973;DHT22;28610;51.214;6.962;2022-07-09T15:47:01;24.40;47.40
42973;DHT22;28610;51.214;6.962;2022-07-09T15:49:46;24.20;46.60
42973;DHT22;28610;51.214;6.962;2022-07-09T15:52:31;24.00;46.50
42973;DHT22;28610;51.214;6.962;2022-07-09T15:55:17;24.00;47.20
42973;DHT22;28610;51.214;6.962;2022-07-09T15:58:02;24.00;46.60
42973;DHT22;28610;51.214;6.962;2022-07-09T16:00:48;24.10;46.00
42973;DHT22;28610;51.214;6.962;2022-07-09T16:03:35;24.20;45.70
42973;DHT22;28610;51.214;6.962;2022-07-09T16:06:20;24.20;45.70
42973;DHT22;28610;51.214;6.962;2022-07-09T16:09:05;24.20;45.40
42973;DHT22;28610;51.214;6.962;2022-07-09T16:11:51;24.00;44.70
42973;DHT22;28610;51.214;6.962;2022-07-09T16:14:54;24.00;45.40
42973;DHT22;28610;51.214;6.962;2022-07-09T16:17:39;23.90;46.40
42973;DHT22;28610;51.214;6.962;2022-07-09T16:20:26;23.80;45.90
42973;DHT22;28610;51.214;6.962;2022-07-09T16:23:12;23.90;46.70
42973;DHT22;28610;51.214;6.962;2022-07-09T16:25:57;23.80;46.30
42973;DHT22;28610;51.214;6.962;2022-07-09T16:28:43;23.70;46.70
42973;DHT22;28610;51.214;6.962;2022-07-09T16:31:28;23.70;46.10
42973;DHT22;28610;51.214;6.962;2022-07-09T16:34:14;23.60;46.20
42973;DHT22;28610;51.214;6.962;2022-07-09T16:37:01;23.70;45.80
42973;DHT22;28610;51.214;6.962;2022-07-09T16:39:47;23.70;46.00
42973;DHT22;28610;51.214;6.962;2022-07-09T16:42:32;23.80;45.80
42973;DHT22;28610;51.214;6.962;2022-07-09T16:45:18;23.70;45.20
42973;DHT22;28610;51.214;6.962;2022-07-09T16:48:03;23.50;44.80
42973;DHT22;28610;51.214;6.962;2022-07-09T16:50:48;23.40;45.80
42973;DHT22;28610;51.214;6.962;2022-07-09T16:53:35;23.20;45.60
42973;DHT22;28610;51.214;6.962;2022-07-09T16:56:20;23.20;46.40
42973;DHT22;28610;51.214;6.962;2022-07-09T16:59:06;23.30;45.50
42973;DHT22;28610;51.214;6.962;2022-07-09T17:01:51;23.40;45.10
42973;DHT22;28610;51.214;6.962;2022-07-09T17:04:37;23.40;43.80
42973;DHT22;28610;51.214;6.962;2022-07-09T17:07:22;23.40;44.20
42973;DHT22;28610;51.214;6.962;2022-07-09T17:10:10;23.30;42.40
42973;DHT22;28610;51.214;6.962;2022-07-09T17:12:56;23.50;43.40
42973;DHT22;28610;51.214;6.962;2022-07-09T17:15:41;23.40;42.40
42973;DHT22;28610;51.214;6.962;2022-07-09T17:18:27;23.30;41.70
42973;DHT22;28610;51.214;6.962;2022-07-09T17:21:12;23.30;42.00
42973;DHT22;28610;51.214;6.962;2022-07-09T17:23:58;23.30;39.90
42973;DHT22;28610;51.214;6.962;2022-07-09T17:26:44;23.10;38.80
42973;DHT22;28610;51.214;6.962;2022-07-09T17:29:30;23.00;38.10